createdAt,value
2018-02-22T00:00:11.313Z,27.70
2018-02-22T00:02:14.504Z,27.00
2018-02-22T00:04:18.474Z,29.97
2018-02-22T00:06:21.632Z,26.13
2018-02-22T00:08:25.624Z,28.67
2018-02-22T00:10:28.805Z,28.53
2018-02-22T00:12:31.989Z,24.93
2018-02-22T00:14:35.137Z,29.00
2018-02-22T00:16:38.321Z,25.00
2018-02-22T00:18:41.472Z,30.55
2018-02-22T00:20:44.627Z,30.27
2018-02-22T00:22:47.806Z,27.03
2018-02-22T00:24:51.747Z,27.90
2018-02-22T00:26:54.899Z,25.77
2018-02-22T00:28:58.072Z,32.57
2018-02-22T00:31:01.224Z,28.80
2018-02-22T00:33:04.380Z,27.52
2018-02-22T00:35:07.566Z,33.03
2018-02-22T00:37:11.517Z,28.23
2018-02-22T00:39:14.687Z,27.83
2018-02-22T00:41:19.369Z,28.90
2018-02-22T00:43:22.565Z,30.03
2018-02-22T00:45:25.733Z,27.63
2018-02-22T00:47:28.890Z,28.27
2018-02-22T00:49:32.087Z,27.93
2018-02-22T00:51:36.008Z,26.17
2018-02-22T00:53:39.957Z,26.13
2018-02-22T00:55:43.128Z,25.25
2018-02-22T00:57:47.072Z,26.70
2018-02-22T00:59:50.230Z,25.62
2018-02-22T01:01:53.405Z,24.12
2018-02-22T01:03:56.576Z,24.73
2018-02-22T01:05:59.729Z,26.23
2018-02-22T01:08:02.887Z,26.92
2018-02-22T01:10:06.832Z,25.90
2018-02-22T01:12:10.752Z,24.27
2018-02-22T01:14:14.700Z,23.83
2018-02-22T01:16:19.337Z,24.67
2018-02-22T01:18:22.493Z,25.70
2018-02-22T01:20:25.636Z,25.20
2018-02-22T01:22:29.576Z,25.73
2018-02-22T01:24:32.721Z,24.47
2018-02-22T01:26:35.896Z,23.97
2018-02-22T01:28:39.349Z,24.73
2018-02-22T01:30:42.526Z,24.07
2018-02-22T01:32:45.716Z,24.53
2018-02-22T01:34:48.994Z,26.03
2018-02-22T01:36:52.255Z,23.57
2018-02-22T01:38:55.440Z,20.83
2018-02-22T01:40:59.716Z,23.12
2018-02-22T01:43:02.877Z,22.07
2018-02-22T01:45:06.812Z,24.10
2018-02-22T01:47:09.964Z,22.70
2018-02-22T01:49:13.145Z,24.83
2018-02-22T01:51:16.301Z,25.20
2018-02-22T01:53:19.994Z,22.75
2018-02-22T01:55:23.175Z,23.40
2018-02-22T01:57:26.321Z,25.13
2018-02-22T01:59:29.468Z,22.97
2018-02-22T02:01:33.621Z,23.50
2018-02-22T02:03:36.781Z,22.83
2018-02-22T02:05:41.120Z,22.27
2018-02-22T02:07:45.073Z,23.27
2018-02-22T02:09:48.226Z,23.10
2018-02-22T02:11:51.393Z,22.33
2018-02-22T02:13:54.585Z,22.98
2018-02-22T02:15:58.542Z,22.37
2018-02-22T02:18:01.733Z,22.23
2018-02-22T02:20:04.893Z,22.35
2018-02-22T02:22:08.048Z,20.33
2018-02-22T02:24:11.480Z,23.90
2018-02-22T02:26:14.636Z,21.60
2018-02-22T02:28:19.298Z,19.17
2018-02-22T02:30:24.282Z,19.40
2018-02-22T02:32:30.112Z,20.53
2018-02-22T02:34:34.281Z,19.80
2018-02-22T02:36:39.231Z,20.13
2018-02-22T02:38:43.514Z,20.40
2018-02-22T02:40:47.791Z,22.53
2018-02-22T02:42:52.355Z,22.23
2018-02-22T02:44:57.578Z,22.43
2018-02-22T02:47:02.256Z,22.65
2018-02-22T02:49:06.241Z,24.97
2018-02-22T02:51:11.103Z,23.08
2018-02-22T02:53:15.201Z,21.53
2018-02-22T02:55:19.484Z,20.33
2018-02-22T02:57:24.194Z,22.77
2018-02-22T02:59:27.497Z,21.10
2018-02-22T03:01:32.024Z,21.27
2018-02-22T03:03:36.720Z,20.53
2018-02-22T03:05:41.314Z,22.27
2018-02-22T03:07:45.321Z,21.33
2018-02-22T03:09:49.884Z,22.57
2018-02-22T03:11:53.038Z,20.47
2018-02-22T03:13:56.203Z,20.83
2018-02-22T03:15:59.389Z,21.27
2018-02-22T03:18:03.309Z,21.47
2018-02-22T03:20:07.238Z,21.27
2018-02-22T03:22:11.207Z,20.23
2018-02-22T03:24:14.360Z,23.37
2018-02-22T03:26:18.300Z,19.90
2018-02-22T03:28:23.368Z,22.10
2018-02-22T03:30:26.526Z,19.43
2018-02-22T03:32:29.684Z,23.17
2018-02-22T03:34:33.098Z,21.58
2018-02-22T03:36:36.257Z,21.73
2018-02-22T03:38:39.414Z,20.17
2018-02-22T03:40:43.181Z,20.65
2018-02-22T03:42:46.381Z,19.83
2018-02-22T03:44:49.533Z,20.57
2018-02-22T03:46:53.455Z,19.87
2018-02-22T03:48:57.402Z,23.53
2018-02-22T03:51:00.585Z,21.93
2018-02-22T03:53:04.655Z,19.70
2018-02-22T03:55:07.803Z,18.27
2018-02-22T03:57:11.732Z,22.00
2018-02-22T03:59:14.914Z,22.20
2018-02-22T04:01:18.077Z,20.40
2018-02-22T04:03:21.267Z,20.87
2018-02-22T04:05:25.222Z,22.47
2018-02-22T04:07:28.384Z,21.27
2018-02-22T04:09:31.579Z,21.07
2018-02-22T04:11:34.777Z,21.00
2018-02-22T04:13:37.945Z,20.73
2018-02-22T04:15:41.108Z,18.20
2018-02-22T04:17:44.325Z,21.67
2018-02-22T04:19:47.486Z,19.80
2018-02-22T04:21:50.681Z,20.37
2018-02-22T04:23:53.840Z,18.67
2018-02-22T04:25:57.032Z,20.20
2018-02-22T04:28:00.216Z,20.30
2018-02-22T04:30:04.504Z,19.10
2018-02-22T04:32:07.694Z,19.80
2018-02-22T04:34:10.879Z,21.52
2018-02-22T04:36:14.060Z,22.70
2018-02-22T04:38:17.212Z,20.00
2018-02-22T04:40:20.552Z,21.50
2018-02-22T04:42:25.620Z,20.27
2018-02-22T04:44:29.580Z,19.20
2018-02-22T04:46:32.776Z,19.63
2018-02-22T04:48:35.936Z,19.53
2018-02-22T04:50:40.928Z,18.93
2018-02-22T04:52:45.361Z,21.20
2018-02-22T04:54:48.529Z,19.73
2018-02-22T04:56:51.689Z,20.87
2018-02-22T04:58:54.872Z,16.50
2018-02-22T05:00:58.798Z,21.67
2018-02-22T05:03:01.980Z,22.93
2018-02-22T05:05:06.663Z,18.87
2018-02-22T05:07:09.851Z,21.58
2018-02-22T05:09:14.698Z,24.70
2018-02-22T05:11:20.490Z,22.90
2018-02-22T05:13:24.920Z,23.67
2018-02-22T05:15:28.464Z,20.95
2018-02-22T05:17:33.749Z,21.50
2018-02-22T05:19:39.157Z,23.77
2018-02-22T05:21:43.572Z,24.00
2018-02-22T05:23:49.251Z,20.93
2018-02-22T05:25:54.857Z,22.90
2018-02-22T05:28:00.847Z,22.50
2018-02-22T05:30:06.829Z,19.13
2018-02-22T05:32:11.689Z,21.17
2018-02-22T05:34:16.835Z,19.27
2018-02-22T05:36:21.871Z,21.27
2018-02-22T05:38:26.571Z,18.13
2018-02-22T05:40:31.780Z,18.30
2018-02-22T05:42:36.507Z,23.53
2018-02-22T05:44:41.606Z,20.30
2018-02-22T05:46:46.423Z,21.95
2018-02-22T05:48:49.697Z,20.17
2018-02-22T05:50:53.826Z,22.97
2018-02-22T05:52:58.365Z,23.08
2018-02-22T05:55:04.611Z,21.60
2018-02-22T05:57:08.516Z,20.73
2018-02-22T05:59:13.246Z,21.03
2018-02-22T06:01:16.516Z,21.37
2018-02-22T06:03:19.707Z,26.87
2018-02-22T06:05:22.866Z,18.47
2018-02-22T06:07:27.949Z,20.23
2018-02-22T06:09:31.105Z,19.23
2018-02-22T06:11:34.304Z,19.27
2018-02-22T06:13:37.460Z,23.20
2018-02-22T06:15:40.636Z,23.05
2018-02-22T06:17:44.597Z,23.05
2018-02-22T06:19:48.725Z,27.90
2018-02-22T06:21:51.880Z,25.83
2018-02-22T06:23:55.078Z,28.80
2018-02-22T06:25:58.236Z,29.97
2018-02-22T06:28:02.157Z,29.00
2018-02-22T06:30:06.129Z,26.23
2018-02-22T06:32:09.279Z,24.63
2018-02-22T06:34:13.209Z,26.03
2018-02-22T06:36:17.172Z,22.83
2018-02-22T06:38:20.332Z,24.02
2018-02-22T06:40:23.669Z,29.10
2018-02-22T06:42:26.824Z,22.37
2018-02-22T06:44:29.982Z,20.90
2018-02-22T06:46:33.185Z,20.37
2018-02-22T06:48:37.136Z,21.60
2018-02-22T06:50:41.761Z,21.53
2018-02-22T06:52:46.379Z,23.37
2018-02-22T06:54:52.227Z,21.17
2018-02-22T06:56:56.989Z,22.03
2018-02-22T06:59:01.084Z,20.60
2018-02-22T07:01:04.245Z,22.73
2018-02-22T07:03:09.296Z,22.30
2018-02-22T07:05:12.514Z,23.70
2018-02-22T07:07:15.672Z,20.03
2018-02-22T07:09:18.834Z,23.97
2018-02-22T07:11:22.029Z,25.20
2018-02-22T07:13:25.318Z,22.07
2018-02-22T07:15:29.611Z,19.77
2018-02-22T07:17:32.802Z,21.80
2018-02-22T07:19:35.955Z,22.77
2018-02-22T07:21:39.145Z,20.33
2018-02-22T07:23:42.309Z,21.53
2018-02-22T07:25:47.383Z,19.80
2018-02-22T07:27:50.628Z,23.10
2018-02-22T07:29:53.833Z,20.52
2018-02-22T07:31:57.757Z,20.53
2018-02-22T07:34:00.949Z,19.83
2018-02-22T07:36:04.112Z,21.67
2018-02-22T07:38:07.276Z,21.53
2018-02-22T07:40:10.462Z,23.57
2018-02-22T07:42:13.619Z,21.40
2018-02-22T07:44:17.581Z,21.63
2018-02-22T07:46:20.771Z,19.83
2018-02-22T07:48:25.568Z,20.90
2018-02-22T07:50:31.540Z,19.73
2018-02-22T07:52:35.964Z,20.77
2018-02-22T07:54:39.909Z,22.93
2018-02-22T07:56:44.935Z,22.20
2018-02-22T07:58:48.216Z,23.50
2018-02-22T08:00:51.400Z,23.37
2018-02-22T08:02:55.320Z,22.17
2018-02-22T08:04:58.510Z,20.50
2018-02-22T08:07:01.669Z,22.50
2018-02-22T08:09:04.867Z,27.40
2018-02-22T08:11:08.031Z,22.80
2018-02-22T08:13:11.190Z,22.57
2018-02-22T08:15:14.398Z,20.42
2018-02-22T08:17:17.554Z,23.17
2018-02-22T08:19:21.151Z,20.80
2018-02-22T08:21:26.149Z,24.12
2018-02-22T08:23:30.432Z,24.03
2018-02-22T08:25:33.765Z,22.97
2018-02-22T08:27:36.927Z,24.05
2018-02-22T08:29:41.461Z,28.45
2018-02-22T08:31:44.619Z,27.05
2018-02-22T08:33:49.323Z,25.47
2018-02-22T08:35:52.481Z,29.77
2018-02-22T08:37:55.661Z,30.33
2018-02-22T08:39:58.849Z,32.70
2018-02-22T08:42:02.047Z,28.70
2018-02-22T08:44:05.285Z,29.30
2018-02-22T08:46:08.440Z,29.63
2018-02-22T08:48:12.364Z,27.93
2018-02-22T08:50:16.304Z,29.67
2018-02-22T08:52:19.465Z,24.83
2018-02-22T08:54:22.615Z,29.57
2018-02-22T08:56:25.798Z,29.48
2018-02-22T08:58:29.721Z,26.53
2018-02-22T09:00:32.868Z,23.85
2018-02-22T09:02:36.107Z,25.13
2018-02-22T09:04:39.231Z,25.07
2018-02-22T09:06:42.441Z,23.33
2018-02-22T09:08:45.594Z,23.73
2018-02-22T09:10:48.776Z,25.73
2018-02-22T09:12:52.696Z,22.50
2018-02-22T09:14:55.849Z,25.10
2018-02-22T09:16:59.037Z,21.97
2018-02-22T09:19:03.028Z,21.93
2018-02-22T09:21:06.214Z,20.37
2018-02-22T09:23:09.368Z,19.98
2018-02-22T09:25:13.309Z,19.13
2018-02-22T09:27:16.465Z,20.23
2018-02-22T09:29:19.645Z,18.20
2018-02-22T09:31:22.801Z,18.50
2018-02-22T09:33:26.721Z,18.70
2018-02-22T09:35:29.905Z,16.90
2018-02-22T09:37:33.068Z,15.50
2018-02-22T09:39:38.857Z,17.70
2018-02-22T09:41:48.351Z,15.15
2018-02-22T09:43:53.954Z,14.73
2018-02-22T09:45:58.763Z,15.87
2018-02-22T09:48:04.192Z,19.73
2018-02-22T09:50:07.360Z,14.37
2018-02-22T09:52:10.555Z,15.97
2018-02-22T09:54:14.612Z,17.27
2018-02-22T09:56:17.768Z,20.43
2018-02-22T09:58:20.952Z,13.73
2018-02-22T10:00:24.133Z,14.20
2018-02-22T10:02:27.289Z,21.43
2018-02-22T10:04:30.449Z,12.45
2018-02-22T10:06:33.636Z,13.83
2018-02-22T10:08:37.574Z,18.30
2018-02-22T10:10:40.757Z,14.67
2018-02-22T10:12:44.717Z,11.93
2018-02-22T10:14:47.909Z,13.38
2018-02-22T10:16:51.085Z,15.73
2018-02-22T10:18:54.312Z,16.33
2018-02-22T10:20:57.557Z,17.23
2018-02-22T10:23:00.732Z,17.60
2018-02-22T10:25:04.946Z,19.12
2018-02-22T10:27:08.125Z,17.80
2018-02-22T10:29:11.296Z,19.52
2018-02-22T10:31:14.476Z,16.77
2018-02-22T10:33:18.405Z,13.73
2018-02-22T10:35:22.442Z,16.60
2018-02-22T10:37:25.611Z,14.65
2018-02-22T10:39:28.826Z,11.50
2018-02-22T10:41:32.030Z,13.17
2018-02-22T10:43:35.184Z,15.27
2018-02-22T10:45:40.089Z,12.23
2018-02-22T10:47:44.710Z,16.67
2018-02-22T10:49:48.295Z,13.25
2018-02-22T10:51:51.464Z,16.17
2018-02-22T10:53:54.624Z,19.93
2018-02-22T10:55:57.811Z,13.13
2018-02-22T10:58:00.960Z,15.15
2018-02-22T11:00:06.039Z,13.73
2018-02-22T11:02:14.720Z,15.70
2018-02-22T11:04:17.915Z,14.03
2018-02-22T11:06:21.080Z,16.93
2018-02-22T11:08:25.357Z,15.90
2018-02-22T11:10:28.537Z,15.55
2018-02-22T11:12:31.681Z,16.90
2018-02-22T11:14:34.886Z,16.47
2018-02-22T11:16:38.048Z,17.27
2018-02-22T11:18:41.206Z,19.10
2018-02-22T11:20:44.394Z,17.20
2018-02-22T11:22:48.310Z,18.57
2018-02-22T11:24:52.229Z,17.12
2018-02-22T11:26:56.168Z,16.27
2018-02-22T11:29:00.093Z,17.17
2018-02-22T11:31:04.037Z,22.10
2018-02-22T11:33:07.221Z,16.40
2018-02-22T11:35:11.146Z,17.20
2018-02-22T11:37:15.089Z,17.47
2018-02-22T11:39:18.269Z,17.67
2018-02-22T11:41:22.207Z,18.50
2018-02-22T11:43:26.150Z,16.43
2018-02-22T11:45:29.300Z,19.30
2018-02-22T11:47:32.889Z,15.98
2018-02-22T11:49:36.124Z,21.33
2018-02-22T11:51:39.861Z,17.07
2018-02-22T11:53:43.026Z,14.67
2018-02-22T11:55:46.179Z,19.13
2018-02-22T11:57:49.369Z,14.90
2018-02-22T11:59:53.940Z,16.35
2018-02-22T12:01:57.890Z,14.43
2018-02-22T12:04:01.041Z,14.90
2018-02-22T12:06:04.220Z,16.70
2018-02-22T12:08:07.418Z,12.85
2018-02-22T12:10:10.604Z,17.23
2018-02-22T12:12:14.558Z,15.83
2018-02-22T12:14:17.712Z,12.73
2018-02-22T12:16:21.205Z,14.07
2018-02-22T12:18:24.482Z,13.73
2018-02-22T12:20:27.629Z,13.97
2018-02-22T12:22:30.818Z,12.77
2018-02-22T12:24:33.964Z,14.20
2018-02-22T12:26:37.120Z,14.90
2018-02-22T12:28:40.525Z,13.10
2018-02-22T12:30:43.678Z,15.33
2018-02-22T12:32:46.828Z,12.17
2018-02-22T12:34:50.773Z,12.75
2018-02-22T12:36:53.948Z,15.33
2018-02-22T12:38:58.584Z,14.87
2018-02-22T12:41:02.630Z,13.23
2018-02-22T12:43:07.728Z,14.63
2018-02-22T12:45:12.140Z,13.10
2018-02-22T12:47:18.110Z,12.43
2018-02-22T12:49:21.557Z,15.13
2018-02-22T12:51:25.982Z,13.73
2018-02-22T12:53:30.583Z,10.77
2018-02-22T12:55:34.467Z,14.10
2018-02-22T12:57:40.209Z,13.03
2018-02-22T12:59:43.588Z,12.13
2018-02-22T13:01:49.945Z,12.13
2018-02-22T13:03:53.452Z,18.13
2018-02-22T13:05:57.940Z,14.97
2018-02-22T13:08:01.759Z,10.43
2018-02-22T13:10:05.742Z,12.70
2018-02-22T13:12:09.505Z,16.97
2018-02-22T13:14:12.715Z,12.20
2018-02-22T13:16:17.284Z,10.53
2018-02-22T13:18:20.653Z,11.50
2018-02-22T13:20:24.042Z,12.07
2018-02-22T13:22:27.991Z,10.40
2018-02-22T13:24:31.906Z,8.67
2018-02-22T13:26:36.008Z,8.40
2018-02-22T13:28:39.196Z,9.43
2018-02-22T13:30:42.514Z,11.07
2018-02-22T13:33:03.530Z,11.15
2018-02-22T13:35:06.797Z,12.00
2018-02-22T13:39:57.864Z,10.80
2018-02-22T13:42:01.105Z,8.93
2018-02-22T13:46:45.501Z,10.13
2018-02-22T13:49:07.232Z,8.50
2018-02-22T13:51:14.071Z,9.07
2018-02-22T13:53:18.375Z,7.33
2018-02-22T13:55:22.320Z,8.17
2018-02-22T13:57:25.464Z,7.03
2018-02-22T13:59:28.685Z,8.77
2018-02-22T14:01:49.909Z,8.23
2018-02-22T14:03:54.554Z,8.23
2018-02-22T14:05:58.716Z,7.57
2018-02-22T14:08:01.914Z,7.67
2018-02-22T14:10:05.813Z,8.47
2018-02-22T14:12:08.991Z,8.87
2018-02-22T14:14:12.153Z,10.43
2018-02-22T14:16:16.092Z,7.63
2018-02-22T14:18:19.254Z,9.90
2018-02-22T14:20:23.242Z,8.70
2018-02-22T14:22:26.396Z,10.73
2018-02-22T14:24:31.065Z,9.37
2018-02-22T14:26:35.004Z,7.53
2018-02-22T14:28:39.272Z,10.10
2018-02-22T14:30:42.476Z,8.50
2018-02-22T14:32:45.665Z,6.70
2018-02-22T14:34:48.833Z,11.17
2018-02-22T14:36:53.113Z,7.67
2018-02-22T14:38:56.287Z,8.03
2018-02-22T14:41:00.588Z,7.87
2018-02-22T14:43:05.594Z,8.07
2018-02-22T14:45:08.905Z,11.90
2018-02-22T14:47:12.048Z,11.00
2018-02-22T14:49:15.977Z,10.30
2018-02-22T14:51:19.979Z,9.38
2018-02-22T14:53:23.154Z,9.17
2018-02-22T14:55:27.100Z,9.63
2018-02-22T14:57:30.253Z,12.57
2018-02-22T14:59:33.686Z,10.17
2018-02-22T15:01:37.599Z,9.87
2018-02-22T15:03:41.098Z,8.93
2018-02-22T15:05:44.286Z,10.77
2018-02-22T15:07:47.430Z,10.20
2018-02-22T15:09:50.570Z,9.47
2018-02-22T15:11:53.746Z,9.13
2018-02-22T15:13:56.916Z,8.33
2018-02-22T15:16:00.084Z,7.83
2018-02-22T15:18:04.005Z,8.13
2018-02-22T15:20:07.945Z,11.50
2018-02-22T15:22:11.110Z,7.60
2018-02-22T15:24:14.260Z,11.40
2018-02-22T15:26:17.452Z,8.83
2018-02-22T15:28:22.482Z,9.03
2018-02-22T15:30:27.363Z,9.10
2018-02-22T15:32:30.645Z,11.70
2018-02-22T15:34:33.784Z,11.73
2018-02-22T15:36:36.967Z,12.67
2018-02-22T15:38:40.343Z,12.77
2018-02-22T15:40:43.786Z,14.37
2018-02-22T15:42:46.952Z,13.82
2018-02-22T15:44:50.094Z,12.70
2018-02-22T15:46:53.277Z,17.77
2018-02-22T15:48:56.429Z,13.25
2018-02-22T15:51:00.377Z,15.07
2018-02-22T15:53:04.706Z,12.77
2018-02-22T15:55:08.622Z,16.37
2018-02-22T15:57:12.562Z,15.60
2018-02-22T15:59:16.117Z,18.77
2018-02-22T16:01:19.237Z,15.00
2018-02-22T16:03:22.384Z,16.60
2018-02-22T16:05:26.332Z,16.93
2018-02-22T16:07:29.510Z,19.65
2018-02-22T16:09:33.454Z,17.83
2018-02-22T16:11:36.638Z,16.37
2018-02-22T16:13:41.051Z,16.37
2018-02-22T16:15:45.325Z,14.80
2018-02-22T16:17:48.473Z,18.77
2018-02-22T16:19:51.683Z,18.50
2018-02-22T16:21:54.836Z,17.47
2018-02-22T16:23:58.835Z,19.00
2018-02-22T16:26:02.136Z,17.27
2018-02-22T16:28:05.737Z,21.58
2018-02-22T16:30:08.899Z,18.70
2018-02-22T16:32:12.850Z,18.93
2018-02-22T16:34:16.059Z,17.87
2018-02-22T16:36:19.232Z,18.97
2018-02-22T16:38:24.135Z,18.80
2018-02-22T16:40:27.417Z,21.97
2018-02-22T16:42:30.540Z,25.17
2018-02-22T16:44:33.692Z,19.30
2018-02-22T16:46:36.883Z,17.70
2018-02-22T16:48:40.073Z,18.90
2018-02-22T16:50:43.262Z,18.60
2018-02-22T16:52:46.473Z,18.58
2018-02-22T16:54:49.624Z,15.70
2018-02-22T16:56:52.804Z,19.40
2018-02-22T16:58:56.272Z,30.27
2018-02-22T17:00:59.469Z,17.37
2018-02-22T17:03:02.659Z,19.17
2018-02-22T17:05:06.932Z,22.37
2018-02-22T17:07:10.862Z,24.93
2018-02-22T17:09:14.086Z,22.37
2018-02-22T17:11:17.237Z,24.00
2018-02-22T17:13:20.401Z,25.17
2018-02-22T17:15:23.576Z,21.10
2018-02-22T17:17:45.060Z,20.85
2018-02-22T17:19:48.243Z,23.60
2018-02-22T17:21:51.422Z,18.12
2018-02-22T17:23:55.521Z,23.67
2018-02-22T17:26:04.241Z,23.73
2018-02-22T17:28:13.486Z,36.33
2018-02-22T17:30:22.187Z,23.47
2018-02-22T17:32:24.744Z,26.57
2018-02-22T17:34:29.839Z,24.85
2018-02-22T17:36:32.994Z,24.52
2018-02-22T17:41:15.711Z,22.70
2018-02-22T17:43:18.908Z,20.87
2018-02-22T17:45:22.101Z,20.17
2018-02-22T17:47:25.293Z,21.30
2018-02-22T17:49:28.649Z,19.27
2018-02-22T17:51:31.801Z,23.77
2018-02-22T17:53:34.987Z,25.77
2018-02-22T17:55:38.157Z,24.75
2018-02-22T17:57:41.357Z,19.90
2018-02-22T17:59:44.537Z,21.00
2018-02-22T18:01:49.578Z,20.53
2018-02-22T18:03:52.739Z,25.73
2018-02-22T18:05:56.176Z,19.73
2018-02-22T18:07:59.335Z,18.93
2018-02-22T18:10:03.285Z,20.80
2018-02-22T18:12:06.696Z,24.33
2018-02-22T18:14:09.881Z,18.83
2018-02-22T18:16:13.876Z,20.87
2018-02-22T18:18:17.041Z,18.73
2018-02-22T18:20:20.322Z,19.50
2018-02-22T18:22:23.573Z,19.90
2018-02-22T18:24:27.540Z,22.05
2018-02-22T18:26:31.494Z,22.90
2018-02-22T18:28:34.688Z,20.90
2018-02-22T18:30:37.896Z,18.80
2018-02-22T18:32:41.152Z,19.80
2018-02-22T18:34:44.349Z,17.27
2018-02-22T18:36:47.636Z,19.10
2018-02-22T18:38:56.384Z,18.43
2018-02-22T18:40:59.751Z,20.03
2018-02-22T18:43:08.484Z,20.10
2018-02-22T18:45:11.693Z,20.57
2018-02-22T18:47:14.893Z,24.10
2018-02-22T18:49:18.109Z,18.03
2018-02-22T18:51:21.398Z,17.63
2018-02-22T18:53:24.644Z,20.40
2018-02-22T18:55:28.588Z,17.33
2018-02-22T18:57:31.874Z,18.17
2018-02-22T18:59:35.057Z,20.00
2018-02-22T19:01:39.018Z,18.80
2018-02-22T19:03:43.037Z,19.00
2018-02-22T19:05:46.959Z,20.07
2018-02-22T19:07:51.094Z,18.62
2018-02-22T19:09:54.292Z,23.67
2018-02-22T19:11:57.710Z,23.40
2018-02-22T19:14:00.945Z,20.70
2018-02-22T19:16:04.122Z,20.27
2018-02-22T19:18:07.287Z,17.27
2018-02-22T19:20:11.689Z,19.87
2018-02-22T19:22:15.616Z,19.07
2018-02-22T19:24:19.544Z,18.03
2018-02-22T19:26:24.718Z,16.40
2018-02-22T19:28:29.026Z,17.57
2018-02-22T19:30:33.578Z,15.93
2018-02-22T19:32:37.657Z,18.23
2018-02-22T19:34:40.852Z,15.20
2018-02-22T19:36:44.047Z,16.02
2018-02-22T19:38:47.192Z,14.10
2018-02-22T19:40:50.376Z,15.83
2018-02-22T19:42:55.089Z,16.10
2018-02-22T19:44:58.368Z,19.23
2018-02-22T19:47:02.318Z,17.58
2018-02-22T19:49:05.468Z,16.70
2018-02-22T19:51:08.700Z,17.07
2018-02-22T19:53:11.849Z,16.83
2018-02-22T19:55:15.000Z,17.03
2018-02-22T19:57:18.181Z,16.27
2018-02-22T19:59:21.480Z,16.98
2018-02-22T20:01:24.649Z,13.60
2018-02-22T20:03:28.618Z,13.87
2018-02-22T20:05:31.777Z,13.70
2018-02-22T20:07:34.952Z,13.80
2018-02-22T20:09:40.856Z,15.90
2018-02-22T20:11:44.807Z,15.13
2018-02-22T20:13:48.809Z,13.93
2018-02-22T20:15:52.285Z,13.37
2018-02-22T20:17:55.435Z,14.43
2018-02-22T20:19:58.638Z,12.67
2018-02-22T20:22:01.816Z,12.17
2018-02-22T20:24:04.963Z,13.53
2018-02-22T20:26:09.002Z,12.25
2018-02-22T20:28:12.160Z,11.82
2018-02-22T20:30:15.347Z,13.60
2018-02-22T20:32:18.600Z,12.00
2018-02-22T20:34:21.782Z,12.97
2018-02-22T20:36:24.962Z,11.40
2018-02-22T20:38:28.264Z,13.37
2018-02-22T20:40:31.417Z,12.83
2018-02-22T20:42:34.598Z,13.63
2018-02-22T20:44:38.909Z,11.43
2018-02-22T20:46:42.905Z,13.87
2018-02-22T20:48:47.565Z,12.40
2018-02-22T20:50:50.904Z,13.97
2018-02-22T20:52:55.878Z,12.05
2018-02-22T20:54:59.321Z,11.77
2018-02-22T20:57:03.180Z,11.80
2018-02-22T20:59:06.421Z,14.37
2018-02-22T21:01:09.589Z,17.07
2018-02-22T21:03:12.816Z,11.57
2018-02-22T21:05:16.743Z,11.97
2018-02-22T21:07:19.952Z,13.60
2018-02-22T21:09:23.424Z,14.20
2018-02-22T21:11:26.607Z,11.10
2018-02-22T21:13:29.782Z,11.40
2018-02-22T21:15:33.289Z,13.83
2018-02-22T21:17:36.465Z,13.70
2018-02-22T21:19:41.033Z,12.13
2018-02-22T21:21:44.460Z,14.60
2018-02-22T21:23:47.605Z,16.90
2018-02-22T21:25:52.008Z,13.18
2018-02-22T21:27:55.243Z,13.63
2018-02-22T21:29:58.409Z,13.43
2018-02-22T21:32:02.003Z,17.17
2018-02-22T21:34:06.137Z,13.95
2018-02-22T21:36:10.307Z,14.03
2018-02-22T21:38:13.660Z,12.30
2018-02-22T21:40:17.634Z,13.03
2018-02-22T21:42:21.384Z,12.00
2018-02-22T21:44:25.309Z,14.80
2018-02-22T21:46:29.389Z,13.13
2018-02-22T21:48:33.496Z,13.63
2018-02-22T21:50:36.801Z,13.67
2018-02-22T21:52:41.218Z,12.47
2018-02-22T21:54:50.002Z,12.60
2018-02-22T21:56:54.295Z,15.07
2018-02-22T21:58:57.465Z,19.80
2018-02-22T22:01:01.777Z,34.80
2018-02-22T22:03:04.944Z,15.87
2018-02-22T22:05:08.126Z,29.40
2018-02-22T22:07:11.405Z,28.80
2018-02-22T22:09:15.325Z,36.80
2018-02-22T22:11:19.282Z,27.57
2018-02-22T22:13:22.789Z,28.53
2018-02-22T22:15:26.239Z,22.37
2018-02-22T22:17:29.440Z,22.23
2018-02-22T22:19:32.640Z,21.70
2018-02-22T22:21:35.960Z,19.07
2018-02-22T22:23:40.623Z,16.57
2018-02-22T22:25:45.289Z,16.13
2018-02-22T22:27:49.234Z,17.00
2018-02-22T22:29:52.385Z,17.17
2018-02-22T22:31:55.589Z,19.27
2018-02-22T22:33:58.911Z,16.25
2018-02-22T22:36:02.920Z,20.92
2018-02-22T22:38:06.082Z,19.03
2018-02-22T22:40:10.022Z,19.10
2018-02-22T22:42:13.193Z,18.00
2018-02-22T22:44:16.351Z,15.00
2018-02-22T22:46:19.544Z,14.00
2018-02-22T22:48:23.389Z,15.82
2018-02-22T22:50:26.537Z,13.47
2018-02-22T22:52:29.721Z,13.27
2018-02-22T22:54:32.872Z,12.37
2018-02-22T22:56:36.816Z,12.37
2018-02-22T22:58:39.968Z,13.87
2018-02-22T23:00:44.421Z,12.02
2018-02-22T23:02:47.626Z,12.63
2018-02-22T23:04:50.782Z,11.45
2018-02-22T23:06:53.935Z,11.07
2018-02-22T23:08:57.110Z,13.83
2018-02-22T23:11:00.360Z,13.33
2018-02-22T23:13:04.801Z,26.55
2018-02-22T23:15:07.952Z,16.40
2018-02-22T23:17:11.134Z,17.07
2018-02-22T23:19:15.061Z,16.67
2018-02-22T23:21:19.016Z,16.00
2018-02-22T23:23:22.171Z,16.53
2018-02-22T23:25:26.117Z,15.43
2018-02-22T23:27:30.066Z,16.57
2018-02-22T23:29:34.361Z,13.77
2018-02-22T23:31:38.257Z,13.17
2018-02-22T23:33:41.536Z,13.10
2018-02-22T23:35:44.952Z,14.52
2018-02-22T23:37:48.138Z,13.50
2018-02-22T23:39:52.088Z,12.63
2018-02-22T23:41:58.801Z,12.13
2018-02-22T23:44:01.980Z,10.50
2018-02-22T23:46:05.151Z,11.53
2018-02-22T23:48:09.093Z,10.03
2018-02-22T23:50:13.037Z,10.87
2018-02-22T23:52:16.216Z,11.43
2018-02-22T23:54:20.132Z,10.60
2018-02-22T23:56:24.084Z,10.17
2018-02-22T23:58:27.246Z,12.23
